sensor_id;sensor_type;location;lat;lon;timestamp;P1;durP1;ratioP1;P2;durP2;ratioP2
27163;SDS011;14685;50.618;7.024;2024-01-07T00:00:00;44.15;;;23.55;;
27163;SDS011;14685;50.618;7.024;2024-01-07T00:02:27;41.33;;;22.75;;
27163;SDS011;14685;50.618;7.024;2024-01-07T00:04:54;41.63;;;22.73;;
27163;SDS011;14685;50.618;7.024;2024-01-07T00:07:21;43.53;;;23.88;;
27163;SDS011;14685;50.618;7.024;2024-01-07T00:09:48;40.03;;;21.15;;
27163;SDS011;14685;50.618;7.024;2024-01-07T00:12:15;41.47;;;22.70;;
27163;SDS011;14685;50.618;7.024;2024-01-07T00:14:42;40.83;;;23.40;;
27163;SDS011;14685;50.618;7.024;2024-01-07T00:17:09;48.83;;;23.95;;
27163;SDS011;14685;50.618;7.024;2024-01-07T00:19:37;41.58;;;22.90;;
27163;SDS011;14685;50.618;7.024;2024-01-07T00:22:04;45.47;;;24.13;;
27163;SDS011;14685;50.618;7.024;2024-01-07T00:24:31;44.40;;;24.20;;
27163;SDS011;14685;50.618;7.024;2024-01-07T00:26:58;45.03;;;23.58;;
27163;SDS011;14685;50.618;7.024;2024-01-07T00:29:25;44.70;;;24.15;;
27163;SDS011;14685;50.618;7.024;2024-01-07T00:31:52;43.30;;;23.70;;
27163;SDS011;14685;50.618;7.024;2024-01-07T00:34:19;46.38;;;23.52;;
27163;SDS011;14685;50.618;7.024;2024-01-07T00:36:46;41.97;;;22.70;;
27163;SDS011;14685;50.618;7.024;2024-01-07T00:39:13;39.53;;;23.48;;
27163;SDS011;14685;50.618;7.024;2024-01-07T00:41:40;42.05;;;23.40;;
27163;SDS011;14685;50.618;7.024;2024-01-07T00:44:07;38.67;;;21.30;;
27163;SDS011;14685;50.618;7.024;2024-01-07T00:46:34;38.10;;;20.40;;
27163;SDS011;14685;50.618;7.024;2024-01-07T00:49:01;40.03;;;23.13;;
27163;SDS011;14685;50.618;7.024;2024-01-07T00:51:28;38.92;;;21.05;;
27163;SDS011;14685;50.618;7.024;2024-01-07T00:53:55;38.53;;;21.40;;
27163;SDS011;14685;50.618;7.024;2024-01-07T00:56:25;38.35;;;22.20;;
27163;SDS011;14685;50.618;7.024;2024-01-07T00:58:52;42.70;;;21.98;;
27163;SDS011;14685;50.618;7.024;2024-01-07T01:01:19;39.67;;;22.00;;
27163;SDS011;14685;50.618;7.024;2024-01-07T01:03:47;42.65;;;23.38;;
27163;SDS011;14685;50.618;7.024;2024-01-07T01:06:14;41.72;;;23.17;;
27163;SDS011;14685;50.618;7.024;2024-01-07T01:08:41;42.63;;;22.80;;
27163;SDS011;14685;50.618;7.024;2024-01-07T01:11:11;49.25;;;25.20;;
27163;SDS011;14685;50.618;7.024;2024-01-07T01:13:38;42.38;;;24.58;;
27163;SDS011;14685;50.618;7.024;2024-01-07T01:16:05;43.72;;;23.48;;
27163;SDS011;14685;50.618;7.024;2024-01-07T01:18:32;44.03;;;23.75;;
27163;SDS011;14685;50.618;7.024;2024-01-07T01:20:59;42.00;;;22.40;;
27163;SDS011;14685;50.618;7.024;2024-01-07T01:23:26;44.55;;;24.40;;
27163;SDS011;14685;50.618;7.024;2024-01-07T01:25:53;45.08;;;24.00;;
27163;SDS011;14685;50.618;7.024;2024-01-07T01:28:20;48.85;;;25.65;;
27163;SDS011;14685;50.618;7.024;2024-01-07T01:30:47;51.88;;;23.88;;
27163;SDS011;14685;50.618;7.024;2024-01-07T01:33:14;40.28;;;21.98;;
27163;SDS011;14685;50.618;7.024;2024-01-07T01:35:41;36.20;;;20.58;;
27163;SDS011;14685;50.618;7.024;2024-01-07T01:38:08;44.55;;;22.40;;
27163;SDS011;14685;50.618;7.024;2024-01-07T01:40:35;40.33;;;21.20;;
27163;SDS011;14685;50.618;7.024;2024-01-07T01:43:02;40.50;;;21.58;;
27163;SDS011;14685;50.618;7.024;2024-01-07T01:45:29;42.95;;;21.77;;
27163;SDS011;14685;50.618;7.024;2024-01-07T01:47:56;38.17;;;20.85;;
27163;SDS011;14685;50.618;7.024;2024-01-07T01:50:23;38.97;;;21.13;;
27163;SDS011;14685;50.618;7.024;2024-01-07T01:52:51;39.25;;;20.73;;
27163;SDS011;14685;50.618;7.024;2024-01-07T01:55:18;37.55;;;21.50;;
27163;SDS011;14685;50.618;7.024;2024-01-07T01:57:46;41.15;;;22.25;;
27163;SDS011;14685;50.618;7.024;2024-01-07T02:00:14;39.58;;;21.27;;
27163;SDS011;14685;50.618;7.024;2024-01-07T02:02:41;40.95;;;22.20;;
27163;SDS011;14685;50.618;7.024;2024-01-07T02:05:08;37.72;;;21.45;;
27163;SDS011;14685;50.618;7.024;2024-01-07T02:07:35;39.88;;;21.42;;
27163;SDS011;14685;50.618;7.024;2024-01-07T02:10:02;38.50;;;21.55;;
27163;SDS011;14685;50.618;7.024;2024-01-07T02:12:30;40.35;;;22.10;;
27163;SDS011;14685;50.618;7.024;2024-01-07T02:14:57;39.30;;;21.45;;
27163;SDS011;14685;50.618;7.024;2024-01-07T02:17:24;34.40;;;20.55;;
27163;SDS011;14685;50.618;7.024;2024-01-07T02:19:51;40.33;;;22.38;;
27163;SDS011;14685;50.618;7.024;2024-01-07T02:22:21;41.10;;;21.60;;
27163;SDS011;14685;50.618;7.024;2024-01-07T02:24:49;36.25;;;19.42;;
27163;SDS011;14685;50.618;7.024;2024-01-07T02:27:16;38.42;;;21.65;;
27163;SDS011;14685;50.618;7.024;2024-01-07T02:29:42;37.25;;;20.65;;
27163;SDS011;14685;50.618;7.024;2024-01-07T02:32:12;40.97;;;21.42;;
27163;SDS011;14685;50.618;7.024;2024-01-07T02:34:39;36.97;;;20.65;;
27163;SDS011;14685;50.618;7.024;2024-01-07T02:37:06;36.67;;;19.85;;
27163;SDS011;14685;50.618;7.024;2024-01-07T02:39:34;36.60;;;19.95;;
27163;SDS011;14685;50.618;7.024;2024-01-07T02:42:01;39.33;;;20.05;;
27163;SDS011;14685;50.618;7.024;2024-01-07T02:44:28;32.60;;;18.63;;
27163;SDS011;14685;50.618;7.024;2024-01-07T02:46:55;33.83;;;19.58;;
27163;SDS011;14685;50.618;7.024;2024-01-07T02:49:22;34.25;;;18.95;;
27163;SDS011;14685;50.618;7.024;2024-01-07T02:51:49;35.25;;;19.00;;
27163;SDS011;14685;50.618;7.024;2024-01-07T02:54:16;34.33;;;19.42;;
27163;SDS011;14685;50.618;7.024;2024-01-07T02:56:43;31.08;;;17.65;;
27163;SDS011;14685;50.618;7.024;2024-01-07T02:59:10;30.58;;;17.05;;
27163;SDS011;14685;50.618;7.024;2024-01-07T03:01:37;29.10;;;15.85;;
27163;SDS011;14685;50.618;7.024;2024-01-07T03:04:07;31.33;;;16.75;;
27163;SDS011;14685;50.618;7.024;2024-01-07T03:06:36;29.48;;;17.33;;
27163;SDS011;14685;50.618;7.024;2024-01-07T03:09:04;31.08;;;18.25;;
27163;SDS011;14685;50.618;7.024;2024-01-07T03:11:30;30.52;;;17.40;;
27163;SDS011;14685;50.618;7.024;2024-01-07T03:13:57;32.40;;;18.15;;
27163;SDS011;14685;50.618;7.024;2024-01-07T03:16:25;31.15;;;17.80;;
27163;SDS011;14685;50.618;7.024;2024-01-07T03:18:52;31.40;;;17.27;;
27163;SDS011;14685;50.618;7.024;2024-01-07T03:21:20;31.83;;;17.23;;
27163;SDS011;14685;50.618;7.024;2024-01-07T03:23:48;34.83;;;18.73;;
27163;SDS011;14685;50.618;7.024;2024-01-07T03:26:17;31.42;;;17.83;;
27163;SDS011;14685;50.618;7.024;2024-01-07T03:28:45;29.58;;;16.90;;
27163;SDS011;14685;50.618;7.024;2024-01-07T03:31:12;28.67;;;17.50;;
27163;SDS011;14685;50.618;7.024;2024-01-07T03:33:42;27.60;;;16.88;;
27163;SDS011;14685;50.618;7.024;2024-01-07T03:36:10;28.50;;;16.38;;
27163;SDS011;14685;50.618;7.024;2024-01-07T03:38:39;27.92;;;16.38;;
27163;SDS011;14685;50.618;7.024;2024-01-07T03:41:07;28.95;;;17.00;;
27163;SDS011;14685;50.618;7.024;2024-01-07T03:43:34;29.38;;;17.33;;
27163;SDS011;14685;50.618;7.024;2024-01-07T03:46:01;26.33;;;16.13;;
27163;SDS011;14685;50.618;7.024;2024-01-07T03:48:28;26.50;;;15.93;;
27163;SDS011;14685;50.618;7.024;2024-01-07T03:50:55;24.75;;;14.45;;
27163;SDS011;14685;50.618;7.024;2024-01-07T03:53:22;25.02;;;14.77;;
27163;SDS011;14685;50.618;7.024;2024-01-07T03:55:50;25.10;;;15.07;;
27163;SDS011;14685;50.618;7.024;2024-01-07T03:58:17;27.05;;;14.60;;
27163;SDS011;14685;50.618;7.024;2024-01-07T04:00:44;22.95;;;14.43;;
27163;SDS011;14685;50.618;7.024;2024-01-07T04:03:11;21.50;;;13.57;;
27163;SDS011;14685;50.618;7.024;2024-01-07T04:05:38;22.02;;;13.75;;
27163;SDS011;14685;50.618;7.024;2024-01-07T04:08:05;21.27;;;13.80;;
27163;SDS011;14685;50.618;7.024;2024-01-07T04:10:32;19.70;;;12.77;;
27163;SDS011;14685;50.618;7.024;2024-01-07T04:12:59;20.50;;;13.75;;
27163;SDS011;14685;50.618;7.024;2024-01-07T04:15:26;21.85;;;13.80;;
27163;SDS011;14685;50.618;7.024;2024-01-07T04:17:53;19.20;;;12.70;;
27163;SDS011;14685;50.618;7.024;2024-01-07T04:20:20;19.65;;;12.55;;
27163;SDS011;14685;50.618;7.024;2024-01-07T04:22:47;17.20;;;11.55;;
27163;SDS011;14685;50.618;7.024;2024-01-07T04:25:14;19.25;;;11.98;;
27163;SDS011;14685;50.618;7.024;2024-01-07T04:27:41;20.48;;;12.77;;
27163;SDS011;14685;50.618;7.024;2024-01-07T04:30:08;21.73;;;13.25;;
27163;SDS011;14685;50.618;7.024;2024-01-07T04:32:36;18.13;;;11.52;;
27163;SDS011;14685;50.618;7.024;2024-01-07T04:35:03;17.83;;;12.20;;
27163;SDS011;14685;50.618;7.024;2024-01-07T04:37:30;17.58;;;11.60;;
27163;SDS011;14685;50.618;7.024;2024-01-07T04:39:57;16.80;;;11.60;;
27163;SDS011;14685;50.618;7.024;2024-01-07T04:42:24;16.23;;;11.55;;
27163;SDS011;14685;50.618;7.024;2024-01-07T04:44:51;19.17;;;12.00;;
27163;SDS011;14685;50.618;7.024;2024-01-07T04:49:54;21.42;;;12.93;;
27163;SDS011;14685;50.618;7.024;2024-01-07T04:52:22;17.95;;;12.63;;
27163;SDS011;14685;50.618;7.024;2024-01-07T04:54:52;19.40;;;12.48;;
27163;SDS011;14685;50.618;7.024;2024-01-07T04:57:20;21.77;;;13.57;;
27163;SDS011;14685;50.618;7.024;2024-01-07T04:59:48;21.95;;;13.35;;
27163;SDS011;14685;50.618;7.024;2024-01-07T05:02:16;23.23;;;14.30;;
27163;SDS011;14685;50.618;7.024;2024-01-07T05:04:43;20.17;;;12.98;;
27163;SDS011;14685;50.618;7.024;2024-01-07T05:07:10;22.25;;;13.88;;
27163;SDS011;14685;50.618;7.024;2024-01-07T05:09:37;21.35;;;13.98;;
27163;SDS011;14685;50.618;7.024;2024-01-07T05:12:05;24.42;;;16.00;;
27163;SDS011;14685;50.618;7.024;2024-01-07T05:14:32;22.05;;;13.75;;
27163;SDS011;14685;50.618;7.024;2024-01-07T05:17:00;23.10;;;14.25;;
27163;SDS011;14685;50.618;7.024;2024-01-07T05:19:27;19.80;;;13.57;;
27163;SDS011;14685;50.618;7.024;2024-01-07T05:21:54;22.05;;;13.95;;
27163;SDS011;14685;50.618;7.024;2024-01-07T05:24:21;25.00;;;15.68;;
27163;SDS011;14685;50.618;7.024;2024-01-07T05:26:48;19.73;;;13.30;;
27163;SDS011;14685;50.618;7.024;2024-01-07T05:29:15;22.85;;;14.18;;
27163;SDS011;14685;50.618;7.024;2024-01-07T05:31:42;25.65;;;15.57;;
27163;SDS011;14685;50.618;7.024;2024-01-07T05:34:09;20.70;;;13.88;;
27163;SDS011;14685;50.618;7.024;2024-01-07T05:36:37;22.20;;;14.30;;
27163;SDS011;14685;50.618;7.024;2024-01-07T05:39:04;23.83;;;15.35;;
27163;SDS011;14685;50.618;7.024;2024-01-07T05:41:30;22.65;;;14.60;;
27163;SDS011;14685;50.618;7.024;2024-01-07T05:43:57;24.83;;;16.08;;
27163;SDS011;14685;50.618;7.024;2024-01-07T05:46:24;27.23;;;16.27;;
27163;SDS011;14685;50.618;7.024;2024-01-07T05:48:51;22.38;;;14.85;;
27163;SDS011;14685;50.618;7.024;2024-01-07T05:51:18;20.17;;;12.52;;
27163;SDS011;14685;50.618;7.024;2024-01-07T05:53:45;18.75;;;12.85;;
27163;SDS011;14685;50.618;7.024;2024-01-07T05:56:12;19.77;;;13.23;;
27163;SDS011;14685;50.618;7.024;2024-01-07T05:58:39;20.38;;;12.75;;
27163;SDS011;14685;50.618;7.024;2024-01-07T06:01:07;18.02;;;12.18;;
27163;SDS011;14685;50.618;7.024;2024-01-07T06:03:35;17.80;;;11.48;;
27163;SDS011;14685;50.618;7.024;2024-01-07T06:06:02;16.40;;;10.85;;
27163;SDS011;14685;50.618;7.024;2024-01-07T06:08:30;16.17;;;10.65;;
27163;SDS011;14685;50.618;7.024;2024-01-07T06:10:57;17.58;;;10.77;;
27163;SDS011;14685;50.618;7.024;2024-01-07T06:13:24;15.70;;;10.60;;
27163;SDS011;14685;50.618;7.024;2024-01-07T06:15:51;16.65;;;11.32;;
27163;SDS011;14685;50.618;7.024;2024-01-07T06:18:19;14.95;;;10.35;;
27163;SDS011;14685;50.618;7.024;2024-01-07T06:20:46;15.90;;;10.07;;
27163;SDS011;14685;50.618;7.024;2024-01-07T06:23:13;16.08;;;11.10;;
27163;SDS011;14685;50.618;7.024;2024-01-07T06:25:40;15.05;;;10.25;;
27163;SDS011;14685;50.618;7.024;2024-01-07T06:28:08;15.98;;;10.43;;
27163;SDS011;14685;50.618;7.024;2024-01-07T06:30:37;17.60;;;11.40;;
27163;SDS011;14685;50.618;7.024;2024-01-07T06:33:04;16.17;;;11.18;;
27163;SDS011;14685;50.618;7.024;2024-01-07T06:35:32;18.20;;;11.55;;
27163;SDS011;14685;50.618;7.024;2024-01-07T06:37:59;14.65;;;10.95;;
27163;SDS011;14685;50.618;7.024;2024-01-07T06:40:26;18.27;;;11.82;;
27163;SDS011;14685;50.618;7.024;2024-01-07T06:42:53;17.35;;;11.32;;
27163;SDS011;14685;50.618;7.024;2024-01-07T06:45:20;20.98;;;12.68;;
27163;SDS011;14685;50.618;7.024;2024-01-07T06:47:47;17.95;;;12.35;;
27163;SDS011;14685;50.618;7.024;2024-01-07T06:50:14;18.45;;;12.10;;
27163;SDS011;14685;50.618;7.024;2024-01-07T06:52:41;17.52;;;10.85;;
27163;SDS011;14685;50.618;7.024;2024-01-07T06:55:08;18.92;;;11.77;;
27163;SDS011;14685;50.618;7.024;2024-01-07T06:57:35;19.00;;;11.80;;
27163;SDS011;14685;50.618;7.024;2024-01-07T07:00:02;17.85;;;12.20;;
27163;SDS011;14685;50.618;7.024;2024-01-07T07:02:30;20.08;;;12.25;;
27163;SDS011;14685;50.618;7.024;2024-01-07T07:04:58;19.10;;;11.95;;
27163;SDS011;14685;50.618;7.024;2024-01-07T07:07:25;19.17;;;12.27;;
27163;SDS011;14685;50.618;7.024;2024-01-07T07:09:51;18.70;;;11.65;;
27163;SDS011;14685;50.618;7.024;2024-01-07T07:12:19;24.00;;;13.55;;
27163;SDS011;14685;50.618;7.024;2024-01-07T07:14:46;20.50;;;12.30;;
27163;SDS011;14685;50.618;7.024;2024-01-07T07:17:13;21.27;;;14.18;;
27163;SDS011;14685;50.618;7.024;2024-01-07T07:19:41;18.52;;;12.45;;
27163;SDS011;14685;50.618;7.024;2024-01-07T07:22:11;19.77;;;12.10;;
27163;SDS011;14685;50.618;7.024;2024-01-07T07:24:41;18.77;;;12.40;;
27163;SDS011;14685;50.618;7.024;2024-01-07T07:27:08;17.73;;;12.30;;
27163;SDS011;14685;50.618;7.024;2024-01-07T07:29:35;21.65;;;13.63;;
27163;SDS011;14685;50.618;7.024;2024-01-07T07:32:02;20.90;;;13.10;;
27163;SDS011;14685;50.618;7.024;2024-01-07T07:34:30;20.83;;;13.43;;
27163;SDS011;14685;50.618;7.024;2024-01-07T07:36:57;19.75;;;13.48;;
27163;SDS011;14685;50.618;7.024;2024-01-07T07:39:24;20.90;;;13.50;;
27163;SDS011;14685;50.618;7.024;2024-01-07T07:41:52;20.92;;;13.98;;
27163;SDS011;14685;50.618;7.024;2024-01-07T07:44:19;21.75;;;13.90;;
27163;SDS011;14685;50.618;7.024;2024-01-07T07:46:46;23.40;;;14.73;;
27163;SDS011;14685;50.618;7.024;2024-01-07T07:49:13;25.70;;;14.48;;
27163;SDS011;14685;50.618;7.024;2024-01-07T07:51:40;24.80;;;15.10;;
27163;SDS011;14685;50.618;7.024;2024-01-07T07:54:07;21.55;;;14.38;;
27163;SDS011;14685;50.618;7.024;2024-01-07T07:56:34;23.17;;;14.00;;
27163;SDS011;14685;50.618;7.024;2024-01-07T07:59:02;22.48;;;14.27;;
27163;SDS011;14685;50.618;7.024;2024-01-07T08:01:29;23.40;;;15.27;;
27163;SDS011;14685;50.618;7.024;2024-01-07T08:03:57;27.42;;;16.10;;
27163;SDS011;14685;50.618;7.024;2024-01-07T08:06:24;22.85;;;14.20;;
27163;SDS011;14685;50.618;7.024;2024-01-07T08:08:51;23.30;;;15.70;;
27163;SDS011;14685;50.618;7.024;2024-01-07T08:11:18;22.67;;;15.05;;
27163;SDS011;14685;50.618;7.024;2024-01-07T08:13:46;21.95;;;13.55;;
27163;SDS011;14685;50.618;7.024;2024-01-07T08:16:14;24.85;;;15.25;;
27163;SDS011;14685;50.618;7.024;2024-01-07T08:18:42;25.30;;;16.27;;
27163;SDS011;14685;50.618;7.024;2024-01-07T08:21:09;24.55;;;15.13;;
27163;SDS011;14685;50.618;7.024;2024-01-07T08:23:36;25.10;;;15.23;;
27163;SDS011;14685;50.618;7.024;2024-01-07T08:26:04;25.92;;;15.48;;
27163;SDS011;14685;50.618;7.024;2024-01-07T08:28:31;24.52;;;15.52;;
27163;SDS011;14685;50.618;7.024;2024-01-07T08:30:58;25.00;;;15.40;;
27163;SDS011;14685;50.618;7.024;2024-01-07T08:33:25;23.25;;;14.75;;
27163;SDS011;14685;50.618;7.024;2024-01-07T08:35:53;23.60;;;14.80;;
27163;SDS011;14685;50.618;7.024;2024-01-07T08:38:20;23.50;;;12.98;;
27163;SDS011;14685;50.618;7.024;2024-01-07T08:40:46;22.25;;;11.98;;
27163;SDS011;14685;50.618;7.024;2024-01-07T08:43:13;25.77;;;15.90;;
27163;SDS011;14685;50.618;7.024;2024-01-07T08:45:40;23.92;;;16.35;;
27163;SDS011;14685;50.618;7.024;2024-01-07T08:48:08;25.73;;;16.80;;
27163;SDS011;14685;50.618;7.024;2024-01-07T08:50:35;24.20;;;15.20;;
27163;SDS011;14685;50.618;7.024;2024-01-07T08:53:02;24.00;;;15.40;;
27163;SDS011;14685;50.618;7.024;2024-01-07T08:55:32;22.05;;;15.00;;
27163;SDS011;14685;50.618;7.024;2024-01-07T08:58:00;26.40;;;15.50;;
27163;SDS011;14685;50.618;7.024;2024-01-07T09:00:27;25.05;;;16.30;;
27163;SDS011;14685;50.618;7.024;2024-01-07T09:02:58;24.30;;;15.50;;
27163;SDS011;14685;50.618;7.024;2024-01-07T09:05:25;24.50;;;15.27;;
27163;SDS011;14685;50.618;7.024;2024-01-07T09:07:52;25.20;;;16.25;;
27163;SDS011;14685;50.618;7.024;2024-01-07T09:10:19;26.52;;;17.00;;
27163;SDS011;14685;50.618;7.024;2024-01-07T09:12:48;25.73;;;16.30;;
27163;SDS011;14685;50.618;7.024;2024-01-07T09:15:17;21.83;;;14.85;;
27163;SDS011;14685;50.618;7.024;2024-01-07T09:17:45;23.45;;;14.15;;
27163;SDS011;14685;50.618;7.024;2024-01-07T09:20:13;22.23;;;15.55;;
27163;SDS011;14685;50.618;7.024;2024-01-07T09:22:40;23.50;;;15.20;;
27163;SDS011;14685;50.618;7.024;2024-01-07T09:25:08;22.67;;;14.73;;
27163;SDS011;14685;50.618;7.024;2024-01-07T09:27:36;23.63;;;15.20;;
27163;SDS011;14685;50.618;7.024;2024-01-07T09:30:03;25.85;;;16.52;;
27163;SDS011;14685;50.618;7.024;2024-01-07T09:32:31;21.98;;;14.63;;
27163;SDS011;14685;50.618;7.024;2024-01-07T09:35:02;25.10;;;14.93;;
27163;SDS011;14685;50.618;7.024;2024-01-07T09:37:34;24.02;;;14.60;;
27163;SDS011;14685;50.618;7.024;2024-01-07T09:40:02;21.65;;;14.43;;
27163;SDS011;14685;50.618;7.024;2024-01-07T09:42:32;27.00;;;16.83;;
27163;SDS011;14685;50.618;7.024;2024-01-07T09:45:01;21.88;;;14.18;;
27163;SDS011;14685;50.618;7.024;2024-01-07T09:47:32;21.85;;;13.90;;
27163;SDS011;14685;50.618;7.024;2024-01-07T09:50:00;19.90;;;13.63;;
27163;SDS011;14685;50.618;7.024;2024-01-07T09:52:27;20.80;;;13.82;;
27163;SDS011;14685;50.618;7.024;2024-01-07T09:54:58;18.40;;;12.77;;
27163;SDS011;14685;50.618;7.024;2024-01-07T09:57:37;21.00;;;12.98;;
27163;SDS011;14685;50.618;7.024;2024-01-07T10:00:07;17.63;;;12.85;;
27163;SDS011;14685;50.618;7.024;2024-01-07T10:02:35;19.92;;;13.07;;
27163;SDS011;14685;50.618;7.024;2024-01-07T10:05:02;20.27;;;13.15;;
27163;SDS011;14685;50.618;7.024;2024-01-07T10:07:30;19.98;;;13.15;;
27163;SDS011;14685;50.618;7.024;2024-01-07T10:09:57;20.35;;;12.30;;
27163;SDS011;14685;50.618;7.024;2024-01-07T10:12:25;20.60;;;13.27;;
27163;SDS011;14685;50.618;7.024;2024-01-07T10:14:53;22.17;;;13.63;;
27163;SDS011;14685;50.618;7.024;2024-01-07T10:17:20;20.10;;;13.90;;
27163;SDS011;14685;50.618;7.024;2024-01-07T10:19:50;21.52;;;12.82;;
27163;SDS011;14685;50.618;7.024;2024-01-07T10:22:17;23.70;;;15.00;;
27163;SDS011;14685;50.618;7.024;2024-01-07T10:24:44;24.10;;;14.30;;
27163;SDS011;14685;50.618;7.024;2024-01-07T10:27:12;23.15;;;14.68;;
27163;SDS011;14685;50.618;7.024;2024-01-07T10:29:40;22.33;;;14.52;;
27163;SDS011;14685;50.618;7.024;2024-01-07T10:32:07;24.08;;;13.75;;
27163;SDS011;14685;50.618;7.024;2024-01-07T10:34:38;22.60;;;13.95;;
27163;SDS011;14685;50.618;7.024;2024-01-07T10:37:06;24.63;;;14.65;;
27163;SDS011;14685;50.618;7.024;2024-01-07T10:39:35;26.17;;;14.15;;
27163;SDS011;14685;50.618;7.024;2024-01-07T10:42:03;25.92;;;15.00;;
27163;SDS011;14685;50.618;7.024;2024-01-07T10:44:34;25.00;;;15.07;;
27163;SDS011;14685;50.618;7.024;2024-01-07T10:47:03;22.65;;;14.68;;
27163;SDS011;14685;50.618;7.024;2024-01-07T10:49:33;23.10;;;14.38;;
27163;SDS011;14685;50.618;7.024;2024-01-07T10:52:04;27.50;;;15.50;;
27163;SDS011;14685;50.618;7.024;2024-01-07T10:54:36;22.08;;;13.85;;
27163;SDS011;14685;50.618;7.024;2024-01-07T10:57:13;25.40;;;15.15;;
27163;SDS011;14685;50.618;7.024;2024-01-07T10:59:47;20.75;;;11.85;;
27163;SDS011;14685;50.618;7.024;2024-01-07T11:02:17;24.25;;;16.15;;
27163;SDS011;14685;50.618;7.024;2024-01-07T11:07:35;26.48;;;16.50;;
27163;SDS011;14685;50.618;7.024;2024-01-07T11:12:44;27.95;;;16.20;;
27163;SDS011;14685;50.618;7.024;2024-01-07T11:18:20;25.60;;;15.25;;
27163;SDS011;14685;50.618;7.024;2024-01-07T11:20:47;25.55;;;15.55;;
27163;SDS011;14685;50.618;7.024;2024-01-07T11:23:31;26.23;;;16.63;;
27163;SDS011;14685;50.618;7.024;2024-01-07T11:28:42;23.88;;;13.90;;
27163;SDS011;14685;50.618;7.024;2024-01-07T11:31:09;25.15;;;15.13;;
27163;SDS011;14685;50.618;7.024;2024-01-07T11:33:37;21.25;;;13.65;;
27163;SDS011;14685;50.618;7.024;2024-01-07T11:36:04;18.08;;;12.82;;
27163;SDS011;14685;50.618;7.024;2024-01-07T11:38:33;19.23;;;13.57;;
27163;SDS011;14685;50.618;7.024;2024-01-07T11:41:01;18.45;;;12.55;;
27163;SDS011;14685;50.618;7.024;2024-01-07T11:43:32;17.80;;;11.60;;
27163;SDS011;14685;50.618;7.024;2024-01-07T11:46:01;16.13;;;11.48;;
27163;SDS011;14685;50.618;7.024;2024-01-07T11:48:29;18.52;;;12.35;;
27163;SDS011;14685;50.618;7.024;2024-01-07T11:50:56;18.15;;;11.73;;
27163;SDS011;14685;50.618;7.024;2024-01-07T11:53:23;15.73;;;10.45;;
27163;SDS011;14685;50.618;7.024;2024-01-07T11:55:50;15.70;;;10.10;;
27163;SDS011;14685;50.618;7.024;2024-01-07T11:58:18;14.10;;;10.50;;
27163;SDS011;14685;50.618;7.024;2024-01-07T12:00:45;12.95;;;9.50;;
27163;SDS011;14685;50.618;7.024;2024-01-07T12:03:12;13.63;;;10.35;;
27163;SDS011;14685;50.618;7.024;2024-01-07T12:05:39;14.38;;;9.90;;
27163;SDS011;14685;50.618;7.024;2024-01-07T12:08:10;14.65;;;10.00;;
27163;SDS011;14685;50.618;7.024;2024-01-07T12:10:37;15.60;;;10.65;;
27163;SDS011;14685;50.618;7.024;2024-01-07T12:13:04;19.58;;;11.68;;
27163;SDS011;14685;50.618;7.024;2024-01-07T12:15:32;17.27;;;11.88;;
27163;SDS011;14685;50.618;7.024;2024-01-07T12:17:59;15.88;;;10.95;;
27163;SDS011;14685;50.618;7.024;2024-01-07T12:20:28;16.10;;;11.05;;
27163;SDS011;14685;50.618;7.024;2024-01-07T12:22:56;14.25;;;10.88;;
27163;SDS011;14685;50.618;7.024;2024-01-07T12:25:24;15.18;;;10.60;;
27163;SDS011;14685;50.618;7.024;2024-01-07T12:27:51;15.13;;;10.32;;
27163;SDS011;14685;50.618;7.024;2024-01-07T12:30:23;17.00;;;12.23;;
27163;SDS011;14685;50.618;7.024;2024-01-07T12:32:51;14.43;;;10.93;;
27163;SDS011;14685;50.618;7.024;2024-01-07T12:35:19;18.05;;;11.57;;
27163;SDS011;14685;50.618;7.024;2024-01-07T12:37:47;15.98;;;11.57;;
27163;SDS011;14685;50.618;7.024;2024-01-07T12:40:14;14.55;;;10.80;;
27163;SDS011;14685;50.618;7.024;2024-01-07T12:42:42;15.10;;;12.10;;
27163;SDS011;14685;50.618;7.024;2024-01-07T12:45:12;21.67;;;13.50;;
27163;SDS011;14685;50.618;7.024;2024-01-07T12:47:41;21.92;;;13.52;;
27163;SDS011;14685;50.618;7.024;2024-01-07T12:50:09;18.63;;;12.60;;
27163;SDS011;14685;50.618;7.024;2024-01-07T12:52:37;21.27;;;13.55;;
27163;SDS011;14685;50.618;7.024;2024-01-07T12:55:08;17.98;;;12.18;;
27163;SDS011;14685;50.618;7.024;2024-01-07T12:57:35;19.65;;;14.13;;
27163;SDS011;14685;50.618;7.024;2024-01-07T13:00:06;21.05;;;13.57;;
27163;SDS011;14685;50.618;7.024;2024-01-07T13:02:33;18.50;;;13.80;;
27163;SDS011;14685;50.618;7.024;2024-01-07T13:05:01;20.27;;;13.25;;
27163;SDS011;14685;50.618;7.024;2024-01-07T13:07:30;22.20;;;12.93;;
27163;SDS011;14685;50.618;7.024;2024-01-07T13:09:58;20.60;;;14.73;;
27163;SDS011;14685;50.618;7.024;2024-01-07T13:12:25;19.85;;;13.90;;
27163;SDS011;14685;50.618;7.024;2024-01-07T13:15:05;23.15;;;14.40;;
27163;SDS011;14685;50.618;7.024;2024-01-07T13:17:33;21.80;;;14.30;;
27163;SDS011;14685;50.618;7.024;2024-01-07T13:20:00;22.02;;;15.57;;
27163;SDS011;14685;50.618;7.024;2024-01-07T13:22:27;22.02;;;13.60;;
27163;SDS011;14685;50.618;7.024;2024-01-07T13:24:54;19.92;;;13.63;;
27163;SDS011;14685;50.618;7.024;2024-01-07T13:27:21;19.50;;;13.13;;
27163;SDS011;14685;50.618;7.024;2024-01-07T13:29:49;22.27;;;13.10;;
27163;SDS011;14685;50.618;7.024;2024-01-07T13:32:16;22.58;;;13.55;;
27163;SDS011;14685;50.618;7.024;2024-01-07T13:34:45;19.70;;;12.45;;
27163;SDS011;14685;50.618;7.024;2024-01-07T13:37:12;20.38;;;13.43;;
27163;SDS011;14685;50.618;7.024;2024-01-07T13:39:39;17.75;;;11.13;;
27163;SDS011;14685;50.618;7.024;2024-01-07T13:42:06;15.68;;;10.95;;
27163;SDS011;14685;50.618;7.024;2024-01-07T13:44:33;15.80;;;11.13;;
27163;SDS011;14685;50.618;7.024;2024-01-07T13:47:01;15.57;;;10.85;;
27163;SDS011;14685;50.618;7.024;2024-01-07T13:49:28;15.07;;;10.82;;
27163;SDS011;14685;50.618;7.024;2024-01-07T13:51:55;17.05;;;10.55;;
27163;SDS011;14685;50.618;7.024;2024-01-07T13:54:22;15.43;;;10.65;;
27163;SDS011;14685;50.618;7.024;2024-01-07T13:56:49;15.30;;;10.38;;
27163;SDS011;14685;50.618;7.024;2024-01-07T13:59:17;14.80;;;10.80;;
27163;SDS011;14685;50.618;7.024;2024-01-07T14:01:44;14.88;;;10.27;;
27163;SDS011;14685;50.618;7.024;2024-01-07T14:04:11;14.00;;;9.70;;
27163;SDS011;14685;50.618;7.024;2024-01-07T14:06:39;16.77;;;10.80;;
27163;SDS011;14685;50.618;7.024;2024-01-07T14:09:06;16.40;;;10.50;;
27163;SDS011;14685;50.618;7.024;2024-01-07T14:11:35;15.00;;;10.48;;
27163;SDS011;14685;50.618;7.024;2024-01-07T14:14:02;13.90;;;9.68;;
27163;SDS011;14685;50.618;7.024;2024-01-07T14:16:29;14.40;;;10.00;;
27163;SDS011;14685;50.618;7.024;2024-01-07T14:18:56;13.38;;;9.52;;
27163;SDS011;14685;50.618;7.024;2024-01-07T14:21:23;11.90;;;8.65;;
27163;SDS011;14685;50.618;7.024;2024-01-07T14:23:51;12.80;;;9.65;;
27163;SDS011;14685;50.618;7.024;2024-01-07T14:26:18;15.43;;;8.82;;
27163;SDS011;14685;50.618;7.024;2024-01-07T14:28:49;12.23;;;7.90;;
27163;SDS011;14685;50.618;7.024;2024-01-07T14:31:38;12.73;;;9.02;;
27163;SDS011;14685;50.618;7.024;2024-01-07T14:34:05;14.50;;;8.80;;
27163;SDS011;14685;50.618;7.024;2024-01-07T14:36:32;12.50;;;8.02;;